sensor_id;sensor_type;location;lat;lon;timestamp;temperature;humidity
16402;DHT22;8310;44.626;11.176;2023-04-12T00:00:29;14.70;44.80
16402;DHT22;8310;44.626;11.176;2023-04-12T00:02:56;14.70;44.90
16402;DHT22;8310;44.626;11.176;2023-04-12T00:05:28;14.70;44.90
16402;DHT22;8310;44.626;11.176;2023-04-12T00:07:57;14.70;44.90
16402;DHT22;8310;44.626;11.176;2023-04-12T00:10:26;14.60;45.00
16402;DHT22;8310;44.626;11.176;2023-04-12T00:12:54;14.70;45.00
16402;DHT22;8310;44.626;11.176;2023-04-12T00:15:22;14.70;45.10
16402;DHT22;8310;44.626;11.176;2023-04-12T00:17:50;14.70;45.10
16402;DHT22;8310;44.626;11.176;2023-04-12T00:20:19;14.70;45.10
16402;DHT22;8310;44.626;11.176;2023-04-12T00:22:48;14.70;45.10
16402;DHT22;8310;44.626;11.176;2023-04-12T00:25:20;14.70;45.20
16402;DHT22;8310;44.626;11.176;2023-04-12T00:27:47;14.70;45.20
16402;DHT22;8310;44.626;11.176;2023-04-12T00:30:15;14.80;45.30
16402;DHT22;8310;44.626;11.176;2023-04-12T00:32:42;14.80;45.30
16402;DHT22;8310;44.626;11.176;2023-04-12T00:35:10;14.80;45.30
16402;DHT22;8310;44.626;11.176;2023-04-12T00:37:38;14.80;45.30
16402;DHT22;8310;44.626;11.176;2023-04-12T00:40:07;14.80;45.30
16402;DHT22;8310;44.626;11.176;2023-04-12T00:42:37;14.80;45.30
16402;DHT22;8310;44.626;11.176;2023-04-12T00:45:05;14.80;45.40
16402;DHT22;8310;44.626;11.176;2023-04-12T00:47:34;14.80;45.30
16402;DHT22;8310;44.626;11.176;2023-04-12T00:50:04;14.70;45.30
16402;DHT22;8310;44.626;11.176;2023-04-12T00:52:33;14.70;45.30
16402;DHT22;8310;44.626;11.176;2023-04-12T00:55:01;14.70;45.20
16402;DHT22;8310;44.626;11.176;2023-04-12T00:57:32;14.60;45.20
16402;DHT22;8310;44.626;11.176;2023-04-12T01:00:02;14.60;45.10
16402;DHT22;8310;44.626;11.176;2023-04-12T01:02:31;14.50;45.20
16402;DHT22;8310;44.626;11.176;2023-04-12T01:04:59;14.50;45.20
16402;DHT22;8310;44.626;11.176;2023-04-12T01:07:36;14.50;45.30
16402;DHT22;8310;44.626;11.176;2023-04-12T01:10:22;14.40;45.30
16402;DHT22;8310;44.626;11.176;2023-04-12T01:13:09;14.50;45.50
16402;DHT22;8310;44.626;11.176;2023-04-12T01:15:47;14.40;45.20
16402;DHT22;8310;44.626;11.176;2023-04-12T01:18:21;14.20;45.00
16402;DHT22;8310;44.626;11.176;2023-04-12T01:20:56;14.10;45.00
16402;DHT22;8310;44.626;11.176;2023-04-12T01:23:42;14.10;45.20
16402;DHT22;8310;44.626;11.176;2023-04-12T01:26:20;14.00;45.10
16402;DHT22;8310;44.626;11.176;2023-04-12T01:29:01;13.80;45.90
16402;DHT22;8310;44.626;11.176;2023-04-12T01:31:30;13.70;45.10
16402;DHT22;8310;44.626;11.176;2023-04-12T01:34:00;13.60;45.20
16402;DHT22;8310;44.626;11.176;2023-04-12T01:36:29;13.60;45.30
16402;DHT22;8310;44.626;11.176;2023-04-12T01:38:58;13.60;45.30
16402;DHT22;8310;44.626;11.176;2023-04-12T01:41:27;13.60;45.20
16402;DHT22;8310;44.626;11.176;2023-04-12T01:43:54;13.60;45.20
16402;DHT22;8310;44.626;11.176;2023-04-12T01:46:24;13.50;45.10
16402;DHT22;8310;44.626;11.176;2023-04-12T01:48:53;13.50;45.10
16402;DHT22;8310;44.626;11.176;2023-04-12T01:51:29;13.40;45.10
16402;DHT22;8310;44.626;11.176;2023-04-12T01:54:03;13.40;46.10
16402;DHT22;8310;44.626;11.176;2023-04-12T01:56:37;13.20;45.20
16402;DHT22;8310;44.626;11.176;2023-04-12T01:59:06;13.10;45.10
16402;DHT22;8310;44.626;11.176;2023-04-12T02:01:37;13.10;45.10
16402;DHT22;8310;44.626;11.176;2023-04-12T02:04:05;13.00;45.10
16402;DHT22;8310;44.626;11.176;2023-04-12T02:06:33;13.00;45.20
16402;DHT22;8310;44.626;11.176;2023-04-12T02:09:03;13.00;45.30
16402;DHT22;8310;44.626;11.176;2023-04-12T02:11:30;13.00;45.30
16402;DHT22;8310;44.626;11.176;2023-04-12T02:13:58;13.00;45.40
16402;DHT22;8310;44.626;11.176;2023-04-12T02:16:27;13.10;45.40
16402;DHT22;8310;44.626;11.176;2023-04-12T02:18:58;13.10;45.50
16402;DHT22;8310;44.626;11.176;2023-04-12T02:21:26;13.10;45.50
16402;DHT22;8310;44.626;11.176;2023-04-12T02:23:54;13.10;45.50
16402;DHT22;8310;44.626;11.176;2023-04-12T02:26:21;13.10;45.40
16402;DHT22;8310;44.626;11.176;2023-04-12T02:28:49;13.10;45.70
16402;DHT22;8310;44.626;11.176;2023-04-12T02:31:17;13.00;45.50
16402;DHT22;8310;44.626;11.176;2023-04-12T02:33:44;13.00;45.40
16402;DHT22;8310;44.626;11.176;2023-04-12T02:36:13;12.90;45.40
16402;DHT22;8310;44.626;11.176;2023-04-12T02:38:40;12.90;45.50
16402;DHT22;8310;44.626;11.176;2023-04-12T02:41:08;12.90;45.50
16402;DHT22;8310;44.626;11.176;2023-04-12T02:43:35;12.90;45.50
16402;DHT22;8310;44.626;11.176;2023-04-12T02:46:03;12.90;45.40
16402;DHT22;8310;44.626;11.176;2023-04-12T02:48:32;12.80;45.40
16402;DHT22;8310;44.626;11.176;2023-04-12T02:51:00;12.80;45.40
16402;DHT22;8310;44.626;11.176;2023-04-12T02:53:29;12.70;45.40
16402;DHT22;8310;44.626;11.176;2023-04-12T02:55:57;12.70;45.50
16402;DHT22;8310;44.626;11.176;2023-04-12T02:58:26;12.70;45.50
16402;DHT22;8310;44.626;11.176;2023-04-12T03:00:53;12.60;45.40
16402;DHT22;8310;44.626;11.176;2023-04-12T03:03:23;12.60;45.40
16402;DHT22;8310;44.626;11.176;2023-04-12T03:05:51;12.50;45.40
16402;DHT22;8310;44.626;11.176;2023-04-12T03:08:18;12.50;45.50
16402;DHT22;8310;44.626;11.176;2023-04-12T03:10:48;12.60;45.60
16402;DHT22;8310;44.626;11.176;2023-04-12T03:13:15;12.60;45.70
16402;DHT22;8310;44.626;11.176;2023-04-12T03:15:43;12.60;45.70
16402;DHT22;8310;44.626;11.176;2023-04-12T03:18:10;12.60;46.00
16402;DHT22;8310;44.626;11.176;2023-04-12T03:20:37;12.60;45.60
16402;DHT22;8310;44.626;11.176;2023-04-12T03:23:06;12.40;45.30
16402;DHT22;8310;44.626;11.176;2023-04-12T03:25:34;12.30;45.20
16402;DHT22;8310;44.626;11.176;2023-04-12T03:28:04;12.20;45.20
16402;DHT22;8310;44.626;11.176;2023-04-12T03:30:32;12.20;45.40
16402;DHT22;8310;44.626;11.176;2023-04-12T03:33:00;12.20;45.50
16402;DHT22;8310;44.626;11.176;2023-04-12T03:35:27;12.20;45.60
16402;DHT22;8310;44.626;11.176;2023-04-12T03:37:55;12.20;45.60
16402;DHT22;8310;44.626;11.176;2023-04-12T03:40:22;12.30;45.70
16402;DHT22;8310;44.626;11.176;2023-04-12T03:42:50;12.30;45.70
16402;DHT22;8310;44.626;11.176;2023-04-12T03:45:19;12.30;45.70
16402;DHT22;8310;44.626;11.176;2023-04-12T03:47:47;12.30;45.60
16402;DHT22;8310;44.626;11.176;2023-04-12T03:50:17;12.30;45.70
16402;DHT22;8310;44.626;11.176;2023-04-12T03:52:44;12.20;45.80
16402;DHT22;8310;44.626;11.176;2023-04-12T03:55:12;12.10;46.30
16402;DHT22;8310;44.626;11.176;2023-04-12T03:57:43;12.00;46.50
16402;DHT22;8310;44.626;11.176;2023-04-12T04:00:12;11.90;45.80
16402;DHT22;8310;44.626;11.176;2023-04-12T04:02:41;11.90;45.80
16402;DHT22;8310;44.626;11.176;2023-04-12T04:05:09;11.90;45.80
16402;DHT22;8310;44.626;11.176;2023-04-12T04:07:37;11.90;45.80
16402;DHT22;8310;44.626;11.176;2023-04-12T04:10:06;11.90;45.80
16402;DHT22;8310;44.626;11.176;2023-04-12T04:12:34;11.90;46.40
16402;DHT22;8310;44.626;11.176;2023-04-12T04:15:02;12.00;45.90
16402;DHT22;8310;44.626;11.176;2023-04-12T04:17:30;11.90;45.70
16402;DHT22;8310;44.626;11.176;2023-04-12T04:19:59;11.80;45.50
16402;DHT22;8310;44.626;11.176;2023-04-12T04:22:27;11.80;45.60
16402;DHT22;8310;44.626;11.176;2023-04-12T04:24:54;11.70;45.70
16402;DHT22;8310;44.626;11.176;2023-04-12T04:27:22;11.70;45.80
16402;DHT22;8310;44.626;11.176;2023-04-12T04:29:51;11.70;45.80
16402;DHT22;8310;44.626;11.176;2023-04-12T04:32:18;11.80;45.90
16402;DHT22;8310;44.626;11.176;2023-04-12T04:34:46;11.80;45.90
16402;DHT22;8310;44.626;11.176;2023-04-12T04:37:20;11.80;46.10
16402;DHT22;8310;44.626;11.176;2023-04-12T04:39:50;11.80;46.40
16402;DHT22;8310;44.626;11.176;2023-04-12T04:42:17;11.70;48.60
16402;DHT22;8310;44.626;11.176;2023-04-12T04:44:46;11.70;46.60
16402;DHT22;8310;44.626;11.176;2023-04-12T04:47:15;11.60;46.30
16402;DHT22;8310;44.626;11.176;2023-04-12T04:49:44;11.60;46.30
16402;DHT22;8310;44.626;11.176;2023-04-12T04:52:13;11.60;46.20
16402;DHT22;8310;44.626;11.176;2023-04-12T04:54:43;11.70;46.20
16402;DHT22;8310;44.626;11.176;2023-04-12T04:57:11;11.70;46.20
16402;DHT22;8310;44.626;11.176;2023-04-12T04:59:39;11.80;46.30
16402;DHT22;8310;44.626;11.176;2023-04-12T05:02:07;11.80;46.30
16402;DHT22;8310;44.626;11.176;2023-04-12T05:04:36;11.80;46.30
16402;DHT22;8310;44.626;11.176;2023-04-12T05:07:03;11.90;46.40
16402;DHT22;8310;44.626;11.176;2023-04-12T05:09:31;11.90;46.40
16402;DHT22;8310;44.626;11.176;2023-04-12T05:12:01;12.00;46.40
16402;DHT22;8310;44.626;11.176;2023-04-12T05:14:28;12.10;46.50
16402;DHT22;8310;44.626;11.176;2023-04-12T05:16:57;12.10;46.60
16402;DHT22;8310;44.626;11.176;2023-04-12T05:19:25;12.20;46.80
16402;DHT22;8310;44.626;11.176;2023-04-12T05:21:52;12.30;46.90
16402;DHT22;8310;44.626;11.176;2023-04-12T05:24:20;12.40;47.10
16402;DHT22;8310;44.626;11.176;2023-04-12T05:26:47;12.50;47.00
16402;DHT22;8310;44.626;11.176;2023-04-12T05:29:17;12.60;46.90
16402;DHT22;8310;44.626;11.176;2023-04-12T05:31:44;12.60;46.80
16402;DHT22;8310;44.626;11.176;2023-04-12T05:34:12;12.60;46.90
16402;DHT22;8310;44.626;11.176;2023-04-12T05:36:40;12.70;46.90
16402;DHT22;8310;44.626;11.176;2023-04-12T05:39:08;12.70;47.00
16402;DHT22;8310;44.626;11.176;2023-04-12T05:41:35;12.80;47.00
16402;DHT22;8310;44.626;11.176;2023-04-12T05:44:03;12.80;47.10
16402;DHT22;8310;44.626;11.176;2023-04-12T05:46:32;12.90;47.10
16402;DHT22;8310;44.626;11.176;2023-04-12T05:49:00;12.90;47.10
16402;DHT22;8310;44.626;11.176;2023-04-12T05:51:29;13.00;47.20
16402;DHT22;8310;44.626;11.176;2023-04-12T05:53:56;13.00;47.20
16402;DHT22;8310;44.626;11.176;2023-04-12T05:56:24;13.10;47.20
16402;DHT22;8310;44.626;11.176;2023-04-12T05:58:52;13.10;47.20
16402;DHT22;8310;44.626;11.176;2023-04-12T06:01:19;13.10;47.20
16402;DHT22;8310;44.626;11.176;2023-04-12T06:03:49;13.20;47.30
16402;DHT22;8310;44.626;11.176;2023-04-12T06:06:17;13.20;47.30
16402;DHT22;8310;44.626;11.176;2023-04-12T06:08:45;13.30;47.40
16402;DHT22;8310;44.626;11.176;2023-04-12T06:11:12;13.40;47.50
16402;DHT22;8310;44.626;11.176;2023-04-12T06:13:40;13.40;47.50
16402;DHT22;8310;44.626;11.176;2023-04-12T06:16:09;13.50;47.60
16402;DHT22;8310;44.626;11.176;2023-04-12T06:18:37;13.60;47.60
16402;DHT22;8310;44.626;11.176;2023-04-12T06:21:07;13.60;47.60
16402;DHT22;8310;44.626;11.176;2023-04-12T06:23:34;13.70;47.80
16402;DHT22;8310;44.626;11.176;2023-04-12T06:26:02;13.70;47.80
16402;DHT22;8310;44.626;11.176;2023-04-12T06:28:33;13.80;48.00
16402;DHT22;8310;44.626;11.176;2023-04-12T06:31:01;13.80;48.10
16402;DHT22;8310;44.626;11.176;2023-04-12T06:33:29;13.80;48.00
16402;DHT22;8310;44.626;11.176;2023-04-12T06:35:57;13.80;47.80
16402;DHT22;8310;44.626;11.176;2023-04-12T06:38:26;13.80;47.70
16402;DHT22;8310;44.626;11.176;2023-04-12T06:40:55;13.80;48.10
16402;DHT22;8310;44.626;11.176;2023-04-12T06:43:23;13.90;48.90
16402;DHT22;8310;44.626;11.176;2023-04-12T06:45:54;13.90;50.90
16402;DHT22;8310;44.626;11.176;2023-04-12T06:48:23;14.00;49.50
16402;DHT22;8310;44.626;11.176;2023-04-12T06:50:50;14.10;49.20
16402;DHT22;8310;44.626;11.176;2023-04-12T06:53:18;14.20;49.50
16402;DHT22;8310;44.626;11.176;2023-04-12T06:55:48;14.20;49.10
16402;DHT22;8310;44.626;11.176;2023-04-12T06:58:15;14.30;49.00
16402;DHT22;8310;44.626;11.176;2023-04-12T07:00:42;14.40;49.00
16402;DHT22;8310;44.626;11.176;2023-04-12T07:03:10;14.50;48.90
16402;DHT22;8310;44.626;11.176;2023-04-12T07:05:37;14.60;49.10
16402;DHT22;8310;44.626;11.176;2023-04-12T07:08:07;14.70;49.10
16402;DHT22;8310;44.626;11.176;2023-04-12T07:10:36;14.70;51.10
16402;DHT22;8310;44.626;11.176;2023-04-12T07:13:10;14.70;49.50
16402;DHT22;8310;44.626;11.176;2023-04-12T07:15:38;14.80;49.10
16402;DHT22;8310;44.626;11.176;2023-04-12T07:18:06;14.80;49.00
16402;DHT22;8310;44.626;11.176;2023-04-12T07:20:33;14.90;49.40
16402;DHT22;8310;44.626;11.176;2023-04-12T07:23:01;15.00;49.50
16402;DHT22;8310;44.626;11.176;2023-04-12T07:25:28;15.00;49.50
16402;DHT22;8310;44.626;11.176;2023-04-12T07:27:56;15.10;49.60
16402;DHT22;8310;44.626;11.176;2023-04-12T07:30:25;15.10;50.20
16402;DHT22;8310;44.626;11.176;2023-04-12T07:32:55;15.20;49.40
16402;DHT22;8310;44.626;11.176;2023-04-12T07:35:25;15.20;49.30
16402;DHT22;8310;44.626;11.176;2023-04-12T07:37:53;15.30;49.20
16402;DHT22;8310;44.626;11.176;2023-04-12T07:40:22;15.40;49.20
16402;DHT22;8310;44.626;11.176;2023-04-12T07:42:50;15.40;49.20
16402;DHT22;8310;44.626;11.176;2023-04-12T07:45:18;15.40;49.10
16402;DHT22;8310;44.626;11.176;2023-04-12T07:47:47;15.50;49.10
16402;DHT22;8310;44.626;11.176;2023-04-12T07:50:15;15.60;49.20
16402;DHT22;8310;44.626;11.176;2023-04-12T07:52:43;15.60;49.20
16402;DHT22;8310;44.626;11.176;2023-04-12T07:55:11;15.60;49.40
16402;DHT22;8310;44.626;11.176;2023-04-12T07:57:39;15.70;49.30
16402;DHT22;8310;44.626;11.176;2023-04-12T08:00:08;15.70;49.30
16402;DHT22;8310;44.626;11.176;2023-04-12T08:02:36;15.70;49.50
16402;DHT22;8310;44.626;11.176;2023-04-12T08:05:07;15.70;50.00
16402;DHT22;8310;44.626;11.176;2023-04-12T08:07:34;15.70;49.30
16402;DHT22;8310;44.626;11.176;2023-04-12T08:10:02;15.70;49.80
16402;DHT22;8310;44.626;11.176;2023-04-12T08:12:30;15.70;53.10
16402;DHT22;8310;44.626;11.176;2023-04-12T08:14:58;15.70;52.90
16402;DHT22;8310;44.626;11.176;2023-04-12T08:17:25;15.70;53.20
16402;DHT22;8310;44.626;11.176;2023-04-12T08:19:53;15.60;53.20
16402;DHT22;8310;44.626;11.176;2023-04-12T08:22:23;15.60;52.60
16402;DHT22;8310;44.626;11.176;2023-04-12T08:24:54;15.60;52.40
16402;DHT22;8310;44.626;11.176;2023-04-12T08:27:21;15.50;50.80
16402;DHT22;8310;44.626;11.176;2023-04-12T08:29:49;15.50;50.90
16402;DHT22;8310;44.626;11.176;2023-04-12T08:32:16;15.50;50.60
16402;DHT22;8310;44.626;11.176;2023-04-12T08:34:44;15.50;50.00
16402;DHT22;8310;44.626;11.176;2023-04-12T08:37:12;15.50;50.50
16402;DHT22;8310;44.626;11.176;2023-04-12T08:39:41;15.50;50.60
16402;DHT22;8310;44.626;11.176;2023-04-12T08:42:10;15.60;50.40
16402;DHT22;8310;44.626;11.176;2023-04-12T08:44:40;15.70;51.50
16402;DHT22;8310;44.626;11.176;2023-04-12T08:47:09;15.80;53.70
16402;DHT22;8310;44.626;11.176;2023-04-12T08:49:37;15.90;53.40
16402;DHT22;8310;44.626;11.176;2023-04-12T08:52:06;15.90;52.90
16402;DHT22;8310;44.626;11.176;2023-04-12T08:54:35;16.00;52.90
16402;DHT22;8310;44.626;11.176;2023-04-12T08:57:06;16.10;52.20
16402;DHT22;8310;44.626;11.176;2023-04-12T08:59:37;16.20;52.50
16402;DHT22;8310;44.626;11.176;2023-04-12T09:02:04;16.20;51.80
16402;DHT22;8310;44.626;11.176;2023-04-12T09:04:32;16.30;51.30
16402;DHT22;8310;44.626;11.176;2023-04-12T09:07:00;16.40;51.80
16402;DHT22;8310;44.626;11.176;2023-04-12T09:09:42;16.50;53.00
16402;DHT22;8310;44.626;11.176;2023-04-12T09:12:12;16.60;54.50
16402;DHT22;8310;44.626;11.176;2023-04-12T09:14:40;16.60;55.30
16402;DHT22;8310;44.626;11.176;2023-04-12T09:17:23;16.60;52.70
16402;DHT22;8310;44.626;11.176;2023-04-12T09:19:51;16.70;56.90
16402;DHT22;8310;44.626;11.176;2023-04-12T09:22:32;16.70;54.80
16402;DHT22;8310;44.626;11.176;2023-04-12T09:25:01;16.80;54.80
16402;DHT22;8310;44.626;11.176;2023-04-12T09:27:44;16.90;55.00
16402;DHT22;8310;44.626;11.176;2023-04-12T09:30:12;17.00;54.00
16402;DHT22;8310;44.626;11.176;2023-04-12T09:32:40;17.20;57.10
16402;DHT22;8310;44.626;11.176;2023-04-12T09:35:08;17.40;53.90
16402;DHT22;8310;44.626;11.176;2023-04-12T09:37:36;17.50;53.50
16402;DHT22;8310;44.626;11.176;2023-04-12T09:40:06;17.70;53.20
16402;DHT22;8310;44.626;11.176;2023-04-12T09:42:49;17.90;53.10
16402;DHT22;8310;44.626;11.176;2023-04-12T09:45:19;18.20;54.40
16402;DHT22;8310;44.626;11.176;2023-04-12T09:47:49;18.30;55.40
16402;DHT22;8310;44.626;11.176;2023-04-12T09:50:20;18.40;54.60
16402;DHT22;8310;44.626;11.176;2023-04-12T09:52:48;18.50;53.40
16402;DHT22;8310;44.626;11.176;2023-04-12T09:55:17;18.70;53.40
16402;DHT22;8310;44.626;11.176;2023-04-12T09:57:50;18.80;53.80
16402;DHT22;8310;44.626;11.176;2023-04-12T10:00:20;19.00;55.40
16402;DHT22;8310;44.626;11.176;2023-04-12T10:02:49;19.20;53.40
16402;DHT22;8310;44.626;11.176;2023-04-12T10:05:18;19.30;54.40
16402;DHT22;8310;44.626;11.176;2023-04-12T10:07:46;19.50;53.60
16402;DHT22;8310;44.626;11.176;2023-04-12T10:10:16;19.70;53.40
16402;DHT22;8310;44.626;11.176;2023-04-12T10:12:45;19.80;53.10
16402;DHT22;8310;44.626;11.176;2023-04-12T10:15:15;19.90;53.10
16402;DHT22;8310;44.626;11.176;2023-04-12T10:17:44;20.00;53.00
16402;DHT22;8310;44.626;11.176;2023-04-12T10:20:12;20.10;52.80
16402;DHT22;8310;44.626;11.176;2023-04-12T10:22:40;20.10;52.70
16402;DHT22;8310;44.626;11.176;2023-04-12T10:25:12;20.20;52.60
16402;DHT22;8310;44.626;11.176;2023-04-12T10:27:40;20.20;52.50
16402;DHT22;8310;44.626;11.176;2023-04-12T10:30:24;20.20;52.50
16402;DHT22;8310;44.626;11.176;2023-04-12T10:33:11;20.30;52.60
16402;DHT22;8310;44.626;11.176;2023-04-12T10:35:53;20.40;52.70
16402;DHT22;8310;44.626;11.176;2023-04-12T10:38:21;20.50;52.70
16402;DHT22;8310;44.626;11.176;2023-04-12T10:41:12;20.60;52.40
16402;DHT22;8310;44.626;11.176;2023-04-12T10:43:40;20.50;51.90
16402;DHT22;8310;44.626;11.176;2023-04-12T10:46:50;20.40;52.20
16402;DHT22;8310;44.626;11.176;2023-04-12T10:49:17;20.30;51.50
16402;DHT22;8310;44.626;11.176;2023-04-12T10:52:10;20.10;51.60
16402;DHT22;8310;44.626;11.176;2023-04-12T10:54:39;20.10;51.80
16402;DHT22;8310;44.626;11.176;2023-04-12T10:57:41;20.10;52.00
16402;DHT22;8310;44.626;11.176;2023-04-12T11:00:10;20.20;52.10
16402;DHT22;8310;44.626;11.176;2023-04-12T11:03:08;20.30;52.30
16402;DHT22;8310;44.626;11.176;2023-04-12T11:05:57;20.40;52.20
16402;DHT22;8310;44.626;11.176;2023-04-12T11:08:26;20.50;52.40
16402;DHT22;8310;44.626;11.176;2023-04-12T11:11:03;20.70;52.50
16402;DHT22;8310;44.626;11.176;2023-04-12T11:13:34;20.80;52.60
16402;DHT22;8310;44.626;11.176;2023-04-12T11:16:02;20.90;52.60
16402;DHT22;8310;44.626;11.176;2023-04-12T11:18:34;21.00;52.60
16402;DHT22;8310;44.626;11.176;2023-04-12T11:21:02;21.00;52.30
16402;DHT22;8310;44.626;11.176;2023-04-12T11:23:30;21.00;52.10
16402;DHT22;8310;44.626;11.176;2023-04-12T11:25:58;21.00;52.20
16402;DHT22;8310;44.626;11.176;2023-04-12T11:28:25;21.00;52.30
16402;DHT22;8310;44.626;11.176;2023-04-12T11:30:55;21.00;52.10
16402;DHT22;8310;44.626;11.176;2023-04-12T11:33:40;21.00;52.30
16402;DHT22;8310;44.626;11.176;2023-04-12T11:36:26;20.90;51.60
16402;DHT22;8310;44.626;11.176;2023-04-12T11:38:54;20.80;51.80
16402;DHT22;8310;44.626;11.176;2023-04-12T11:41:22;20.80;52.10
16402;DHT22;8310;44.626;11.176;2023-04-12T11:43:50;20.80;52.50
16402;DHT22;8310;44.626;11.176;2023-04-12T11:46:18;20.80;52.00
16402;DHT22;8310;44.626;11.176;2023-04-12T11:48:47;20.80;51.90
16402;DHT22;8310;44.626;11.176;2023-04-12T11:51:18;20.90;52.30
16402;DHT22;8310;44.626;11.176;2023-04-12T11:53:51;21.00;52.60
16402;DHT22;8310;44.626;11.176;2023-04-12T11:56:19;21.20;52.70
16402;DHT22;8310;44.626;11.176;2023-04-12T11:58:47;21.30;52.60
16402;DHT22;8310;44.626;11.176;2023-04-12T12:01:15;21.40;52.50
16402;DHT22;8310;44.626;11.176;2023-04-12T12:03:43;21.40;52.60
16402;DHT22;8310;44.626;11.176;2023-04-12T12:06:12;21.30;51.80
16402;DHT22;8310;44.626;11.176;2023-04-12T12:08:40;21.20;52.10
16402;DHT22;8310;44.626;11.176;2023-04-12T12:11:08;21.30;52.40
16402;DHT22;8310;44.626;11.176;2023-04-12T12:13:45;21.40;52.70
16402;DHT22;8310;44.626;11.176;2023-04-12T12:16:14;21.60;52.80
16402;DHT22;8310;44.626;11.176;2023-04-12T12:18:42;21.70;52.80
16402;DHT22;8310;44.626;11.176;2023-04-12T12:21:13;21.80;52.80
16402;DHT22;8310;44.626;11.176;2023-04-12T12:23:42;21.90;53.40
16402;DHT22;8310;44.626;11.176;2023-04-12T12:26:18;22.00;53.00
16402;DHT22;8310;44.626;11.176;2023-04-12T12:28:49;22.10;53.00
16402;DHT22;8310;44.626;11.176;2023-04-12T12:31:18;22.30;53.00
16402;DHT22;8310;44.626;11.176;2023-04-12T12:33:46;22.40;53.00
16402;DHT22;8310;44.626;11.176;2023-04-12T12:36:18;22.40;52.90
16402;DHT22;8310;44.626;11.176;2023-04-12T12:38:46;22.50;52.80
16402;DHT22;8310;44.626;11.176;2023-04-12T12:41:16;22.50;52.30
16402;DHT22;8310;44.626;11.176;2023-04-12T12:43:45;22.30;52.10
16402;DHT22;8310;44.626;11.176;2023-04-12T12:46:12;22.30;52.10
16402;DHT22;8310;44.626;11.176;2023-04-12T12:48:41;22.30;52.50
16402;DHT22;8310;44.626;11.176;2023-04-12T12:51:09;22.30;52.70
16402;DHT22;8310;44.626;11.176;2023-04-12T12:53:40;22.50;52.70
16402;DHT22;8310;44.626;11.176;2023-04-12T12:56:08;22.50;52.60
16402;DHT22;8310;44.626;11.176;2023-04-12T12:58:35;22.60;52.80
16402;DHT22;8310;44.626;11.176;2023-04-12T13:01:07;22.70;53.00
16402;DHT22;8310;44.626;11.176;2023-04-12T13:03:36;22.80;53.00
16402;DHT22;8310;44.626;11.176;2023-04-12T13:06:04;22.80;52.80
16402;DHT22;8310;44.626;11.176;2023-04-12T13:08:32;22.90;52.60
16402;DHT22;8310;44.626;11.176;2023-04-12T13:11:02;22.90;52.70
16402;DHT22;8310;44.626;11.176;2023-04-12T13:13:30;22.90;52.80
16402;DHT22;8310;44.626;11.176;2023-04-12T13:15:58;22.90;52.70
16402;DHT22;8310;44.626;11.176;2023-04-12T13:18:26;22.90;52.70
16402;DHT22;8310;44.626;11.176;2023-04-12T13:20:53;23.00;52.70
16402;DHT22;8310;44.626;11.176;2023-04-12T13:23:22;23.00;52.50
16402;DHT22;8310;44.626;11.176;2023-04-12T13:25:49;22.90;51.80
16402;DHT22;8310;44.626;11.176;2023-04-12T13:28:19;22.70;51.50
16402;DHT22;8310;44.626;11.176;2023-04-12T13:30:47;22.50;52.10
16402;DHT22;8310;44.626;11.176;2023-04-12T13:33:15;22.30;51.50
16402;DHT22;8310;44.626;11.176;2023-04-12T13:35:42;22.20;51.80
16402;DHT22;8310;44.626;11.176;2023-04-12T13:38:10;22.10;51.80
16402;DHT22;8310;44.626;11.176;2023-04-12T13:40:38;22.10;51.80
16402;DHT22;8310;44.626;11.176;2023-04-12T13:43:05;22.00;52.00
16402;DHT22;8310;44.626;11.176;2023-04-12T13:45:34;22.00;52.00
16402;DHT22;8310;44.626;11.176;2023-04-12T13:48:02;22.00;51.80
16402;DHT22;8310;44.626;11.176;2023-04-12T13:50:30;21.90;51.70
16402;DHT22;8310;44.626;11.176;2023-04-12T13:52:57;21.90;51.90
16402;DHT22;8310;44.626;11.176;2023-04-12T13:55:25;21.90;52.00
16402;DHT22;8310;44.626;11.176;2023-04-12T13:57:53;21.90;52.20
16402;DHT22;8310;44.626;11.176;2023-04-12T14:00:22;22.00;52.30
16402;DHT22;8310;44.626;11.176;2023-04-12T14:02:52;22.00;52.30
16402;DHT22;8310;44.626;11.176;2023-04-12T14:05:20;22.10;52.30
16402;DHT22;8310;44.626;11.176;2023-04-12T14:07:48;22.10;52.30
16402;DHT22;8310;44.626;11.176;2023-04-12T14:10:17;22.20;52.50
16402;DHT22;8310;44.626;11.176;2023-04-12T14:12:44;22.30;52.50
16402;DHT22;8310;44.626;11.176;2023-04-12T14:15:12;22.30;52.40
16402;DHT22;8310;44.626;11.176;2023-04-12T14:17:39;22.30;52.30
16402;DHT22;8310;44.626;11.176;2023-04-12T14:20:10;22.40;52.40
16402;DHT22;8310;44.626;11.176;2023-04-12T14:22:38;22.40;52.40
16402;DHT22;8310;44.626;11.176;2023-04-12T14:25:06;22.40;52.30
16402;DHT22;8310;44.626;11.176;2023-04-12T14:27:34;22.50;52.50
16402;DHT22;8310;44.626;11.176;2023-04-12T14:30:04;22.50;52.50
16402;DHT22;8310;44.626;11.176;2023-04-12T14:32:32;22.50;52.50
16402;DHT22;8310;44.626;11.176;2023-04-12T14:34:59;22.60;52.40
16402;DHT22;8310;44.626;11.176;2023-04-12T14:37:28;22.60;52.40
16402;DHT22;8310;44.626;11.176;2023-04-12T14:39:57;22.60;52.30
16402;DHT22;8310;44.626;11.176;2023-04-12T14:42:26;22.60;52.30
16402;DHT22;8310;44.626;11.176;2023-04-12T14:44:53;22.60;52.30
16402;DHT22;8310;44.626;11.176;2023-04-12T14:47:22;22.60;52.20
16402;DHT22;8310;44.626;11.176;2023-04-12T14:49:53;22.60;52.20
16402;DHT22;8310;44.626;11.176;2023-04-12T14:52:21;22.50;52.10
16402;DHT22;8310;44.626;11.176;2023-04-12T14:54:50;22.50;52.10
16402;DHT22;8310;44.626;11.176;2023-04-12T14:57:18;22.50;52.10
16402;DHT22;8310;44.626;11.176;2023-04-12T14:59:46;22.50;52.10
16402;DHT22;8310;44.626;11.176;2023-04-12T15:02:14;22.50;52.10
16402;DHT22;8310;44.626;11.176;2023-04-12T15:04:42;22.40;52.10
16402;DHT22;8310;44.626;11.176;2023-04-12T15:07:10;22.40;52.10
16402;DHT22;8310;44.626;11.176;2023-04-12T15:09:38;22.40;52.10
16402;DHT22;8310;44.626;11.176;2023-04-12T15:12:10;22.40;52.10
16402;DHT22;8310;44.626;11.176;2023-04-12T15:14:38;22.40;52.10
16402;DHT22;8310;44.626;11.176;2023-04-12T15:17:06;22.40;52.10
16402;DHT22;8310;44.626;11.176;2023-04-12T15:19:34;22.40;52.10
16402;DHT22;8310;44.626;11.176;2023-04-12T15:22:02;22.40;52.10
16402;DHT22;8310;44.626;11.176;2023-04-12T15:24:29;22.40;52.20
16402;DHT22;8310;44.626;11.176;2023-04-12T15:26:58;22.40;52.30
16402;DHT22;8310;44.626;11.176;2023-04-12T15:29:28;22.40;52.30
16402;DHT22;8310;44.626;11.176;2023-04-12T15:31:56;22.50;52.40
16402;DHT22;8310;44.626;11.176;2023-04-12T15:34:24;22.60;52.40
16402;DHT22;8310;44.626;11.176;2023-04-12T15:36:53;22.60;52.40
16402;DHT22;8310;44.626;11.176;2023-04-12T15:39:20;22.70;52.50
16402;DHT22;8310;44.626;11.176;2023-04-12T15:41:48;22.70;52.50
16402;DHT22;8310;44.626;11.176;2023-04-12T15:44:16;22.80;52.50